<?xml version="1.0" encoding="UTF-8" standalone="no" ?>
<gpx xmlns="http://www.topografix.com/GPX/1/1" xmlns:xsi="http://www.w3.org/2001/XMLSchema-instance" xsi:schemaLocation="http://www.topografix.com/GPX/1/1 http://www.topografix.com/GPX/1/1/gpx.xsd" version="1.1" creator="VisuGPX - https://www.visugpx.com">
  <metadata>
    <name>02 - Moustey - Pissos</name>
    <desc><![CDATA[Voie de Tours -  Moustey - Pissos]]></desc>
  </metadata>
  <trk>
    <name><![CDATA[02 - Moustey - Pissos]]></name>
    <trkseg>
      <trkpt lat="44.35977" lon="-0.76162">
        <ele>52</ele>
        <time>2017-01-13T10:55:01Z</time>
      </trkpt>
      <trkpt lat="44.35743" lon="-0.76123">
        <ele>51</ele>
        <time>2017-01-13T10:55:41Z</time>
      </trkpt>
      <trkpt lat="44.35063" lon="-0.76123">
        <ele>55</ele>
        <time>2017-01-13T10:56:21Z</time>
      </trkpt>
      <trkpt lat="44.34415" lon="-0.75902">
        <ele>53</ele>
        <time>2017-01-13T10:57:01Z</time>
      </trkpt>
      <trkpt lat="44.34179" lon="-0.75617">
        <ele>48</ele>
        <time>2017-01-13T10:57:41Z</time>
      </trkpt>
      <trkpt lat="44.34139" lon="-0.75524">
        <ele>43</ele>
        <time>2017-01-13T10:58:21Z</time>
      </trkpt>
      <trkpt lat="44.34056" lon="-0.754">
        <ele>44</ele>
        <time>2017-01-13T10:59:01Z</time>
      </trkpt>
      <trkpt lat="44.34093" lon="-0.75321">
        <ele>51</ele>
        <time>2017-01-13T10:59:41Z</time>
      </trkpt>
      <trkpt lat="44.34095" lon="-0.75185">
        <ele>59</ele>
        <time>2017-01-13T11:00:21Z</time>
      </trkpt>
      <trkpt lat="44.3407" lon="-0.75059">
        <ele>56</ele>
        <time>2017-01-13T11:01:01Z</time>
      </trkpt>
      <trkpt lat="44.34042" lon="-0.74961">
        <ele>57</ele>
        <time>2017-01-13T11:01:41Z</time>
      </trkpt>
      <trkpt lat="44.33995" lon="-0.74732">
        <ele>62</ele>
        <time>2017-01-13T11:02:21Z</time>
      </trkpt>
      <trkpt lat="44.33972" lon="-0.74529">
        <ele>60</ele>
        <time>2017-01-13T11:03:01Z</time>
      </trkpt>
      <trkpt lat="44.33967" lon="-0.74387">
        <ele>57</ele>
        <time>2017-01-13T11:03:41Z</time>
      </trkpt>
      <trkpt lat="44.33938" lon="-0.74202">
        <ele>52</ele>
        <time>2017-01-13T11:04:21Z</time>
      </trkpt>
      <trkpt lat="44.33896" lon="-0.74012">
        <ele>53</ele>
        <time>2017-01-13T11:05:01Z</time>
      </trkpt>
      <trkpt lat="44.33861" lon="-0.73894">
        <ele>55</ele>
        <time>2017-01-13T11:05:41Z</time>
      </trkpt>
      <trkpt lat="44.33812" lon="-0.73625">
        <ele>57</ele>
        <time>2017-01-13T11:06:21Z</time>
      </trkpt>
      <trkpt lat="44.33763" lon="-0.73213">
        <ele>55</ele>
        <time>2017-01-13T11:07:01Z</time>
      </trkpt>
      <trkpt lat="44.33533" lon="-0.73216">
        <ele>58</ele>
        <time>2017-01-13T11:07:41Z</time>
      </trkpt>
      <trkpt lat="44.33197" lon="-0.73413">
        <ele>57</ele>
        <time>2017-01-13T11:08:21Z</time>
      </trkpt>
      <trkpt lat="44.32865" lon="-0.73574">
        <ele>58</ele>
        <time>2017-01-13T11:09:01Z</time>
      </trkpt>
      <trkpt lat="44.32133" lon="-0.73761">
        <ele>54</ele>
        <time>2017-01-13T11:09:41Z</time>
      </trkpt>
      <trkpt lat="44.3207" lon="-0.73806">
        <ele>53</ele>
        <time>2017-01-13T11:10:21Z</time>
      </trkpt>
      <trkpt lat="44.32004" lon="-0.73818">
        <ele>53</ele>
        <time>2017-01-13T11:11:01Z</time>
      </trkpt>
      <trkpt lat="44.32022" lon="-0.73997">
        <ele>58</ele>
        <time>2017-01-13T11:11:41Z</time>
      </trkpt>
      <trkpt lat="44.32009" lon="-0.74113">
        <ele>62</ele>
        <time>2017-01-13T11:12:21Z</time>
      </trkpt>
      <trkpt lat="44.31338" lon="-0.75636">
        <ele>56</ele>
        <time>2017-01-13T11:13:01Z</time>
      </trkpt>
      <trkpt lat="44.31154" lon="-0.75791">
        <ele>45</ele>
        <time>2017-01-13T11:13:41Z</time>
      </trkpt>
      <trkpt lat="44.31074" lon="-0.75904">
        <ele>46</ele>
        <time>2017-01-13T11:14:21Z</time>
      </trkpt>
      <trkpt lat="44.3102" lon="-0.76067">
        <ele>54</ele>
        <time>2017-01-13T11:15:01Z</time>
      </trkpt>
      <trkpt lat="44.31003" lon="-0.76284">
        <ele>56</ele>
        <time>2017-01-13T11:15:41Z</time>
      </trkpt>
      <trkpt lat="44.30972" lon="-0.76336">
        <ele>56</ele>
        <time>2017-01-13T11:16:21Z</time>
      </trkpt>
      <trkpt lat="44.30909" lon="-0.76956">
        <ele>61</ele>
        <time>2017-01-13T11:17:01Z</time>
      </trkpt>
      <trkpt lat="44.30933" lon="-0.76976">
        <ele>64</ele>
        <time>2017-01-13T11:17:41Z</time>
      </trkpt>
      <trkpt lat="44.30928" lon="-0.77044">
        <ele>60</ele>
        <time>2017-01-13T11:18:21Z</time>
      </trkpt>
      <trkpt lat="44.30921" lon="-0.77116">
        <ele>60</ele>
        <time>2017-01-13T11:19:01Z</time>
      </trkpt>
      <trkpt lat="44.30916" lon="-0.77173">
        <ele>61</ele>
        <time>2017-01-13T11:19:41Z</time>
      </trkpt>
      <trkpt lat="44.30906" lon="-0.77265">
        <ele>57</ele>
        <time>2017-01-13T11:20:21Z</time>
      </trkpt>
      <trkpt lat="44.30897" lon="-0.77371">
        <ele>55.7</ele>
      </trkpt>
      <trkpt lat="44.30885" lon="-0.77472">
        <ele>56</ele>
      </trkpt>
      <trkpt lat="44.30884" lon="-0.77488">
        <ele>56</ele>
      </trkpt>
      <trkpt lat="44.3088" lon="-0.77578">
        <ele>56</ele>
      </trkpt>
      <trkpt lat="44.30868" lon="-0.77668">
        <ele>56</ele>
      </trkpt>
      <trkpt lat="44.30861" lon="-0.77732">
        <ele>57</ele>
      </trkpt>
      <trkpt lat="44.30863" lon="-0.77727">
        <ele>56</ele>
        <time>2017-01-13T11:21:01Z</time>
      </trkpt>
      <trkpt lat="44.30857" lon="-0.7779">
        <ele>57</ele>
        <time>2017-01-13T11:21:41Z</time>
      </trkpt>
    </trkseg>
  </trk>
</gpx>